createdAt,value
2023-02-05T00:13:30.653Z,4.2
2023-02-05T00:32:49.089Z,4.3
2023-02-05T00:52:04.760Z,4.5
2023-02-05T01:11:19.665Z,4.4
2023-02-05T01:30:35.698Z,4.6
2023-02-05T01:49:52.863Z,4.4
2023-02-05T02:09:10.332Z,4.3
2023-02-05T02:28:30.323Z,4.6
2023-02-05T02:47:49.129Z,4.7
2023-02-05T03:07:04.142Z,4.5
2023-02-05T03:26:23.569Z,4.5
2023-02-05T03:45:41.304Z,4.7
2023-02-05T04:04:59.905Z,4.7
2023-02-05T04:24:17.401Z,4.6
2023-02-05T04:43:35.880Z,4.8
2023-02-05T05:02:52.407Z,4.8
2023-02-05T05:22:09.519Z,4.8
2023-02-05T05:41:23.924Z,4.9
2023-02-05T06:00:40.462Z,4.6
2023-02-05T06:19:56.037Z,4.7
2023-02-05T06:39:12.786Z,4.8
2023-02-05T06:58:29.747Z,4.9
2023-02-05T07:17:47.082Z,4.8
2023-02-05T07:37:04.508Z,4.9
2023-02-05T07:56:24.728Z,5.1
2023-02-05T08:15:42.014Z,5.2
2023-02-05T08:35:02.373Z,5.1
2023-02-05T08:54:19.361Z,5.2
2023-02-05T09:13:36.710Z,5.4
2023-02-05T09:32:55.718Z,5.7
2023-02-05T09:52:11.965Z,5.9
2023-02-05T10:11:29.831Z,5.7
2023-02-05T10:30:46.701Z,5.7
2023-02-05T10:50:04.133Z,5.9
2023-02-05T11:09:22.795Z,6
2023-02-05T11:28:42.360Z,6.4
2023-02-05T11:47:59.279Z,6.6
2023-02-05T12:07:15.452Z,6.4
2023-02-05T12:26:32.681Z,6.4
2023-02-05T12:45:50.851Z,6.4
2023-02-05T13:05:07.749Z,6.3
2023-02-05T13:24:25.858Z,6.6
2023-02-05T13:43:40.149Z,6.5
2023-02-05T14:02:59.507Z,6.3
2023-02-05T14:22:15.820Z,6.1
2023-02-05T14:41:33.134Z,6.1
2023-02-05T15:00:50.518Z,5.9
2023-02-05T15:20:08.685Z,5.8
2023-02-05T15:39:25.706Z,5.9
2023-02-05T15:58:45.246Z,5.7
2023-02-05T16:18:00.349Z,5.5
2023-02-05T16:37:31.066Z,5.5
2023-02-05T16:56:37.923Z,5.3
2023-02-05T17:15:55.694Z,5.4
2023-02-05T17:35:12.444Z,5.5
2023-02-05T17:54:31.572Z,5.5
2023-02-05T18:13:55.136Z,5.5
2023-02-05T18:33:06.534Z,5.3
2023-02-05T18:52:24.024Z,5.3
2023-02-05T19:11:40.673Z,5.1
2023-02-05T19:30:57.608Z,5.2
2023-02-05T19:50:14.030Z,5.3
2023-02-05T20:09:31.499Z,5.2
2023-02-05T20:28:49.708Z,5.2
2023-02-05T20:48:17.356Z,5.2
2023-02-05T21:07:25.588Z,5.2
2023-02-05T21:26:43.690Z,5.2
2023-02-05T21:45:57.178Z,5.1
2023-02-05T22:05:13.751Z,4.7
2023-02-05T22:24:32.828Z,4.8
2023-02-05T22:43:50.580Z,4.7
2023-02-05T23:03:20.785Z,4.6
2023-02-05T23:22:27.159Z,4
2023-02-05T23:41:44.815Z,3.6
